sensor_id;sensor_type;location;lat;lon;timestamp;pressure;altitude;pressure_sealevel;temperature;humidity
48718;BME280;34521;33.042;-96.586;2023-06-14T00:00:00;98883.23;;;24.30;36.82
48718;BME280;34521;33.042;-96.586;2023-06-14T00:02:25;98881.29;;;24.14;37.06
48718;BME280;34521;33.042;-96.586;2023-06-14T00:04:50;98879.73;;;24.80;36.55
48718;BME280;34521;33.042;-96.586;2023-06-14T00:07:15;98877.37;;;24.26;37.01
48718;BME280;34521;33.042;-96.586;2023-06-14T00:09:41;98876.37;;;23.78;37.42
48718;BME280;34521;33.042;-96.586;2023-06-14T00:12:06;98882.74;;;22.91;41.60
48718;BME280;34521;33.042;-96.586;2023-06-14T00:14:30;98883.47;;;22.69;42.99
48718;BME280;34521;33.042;-96.586;2023-06-14T00:16:55;98885.40;;;22.79;43.90
48718;BME280;34521;33.042;-96.586;2023-06-14T00:19:20;98885.82;;;24.84;39.80
48718;BME280;34521;33.042;-96.586;2023-06-14T00:21:45;98888.20;;;24.58;39.43
48718;BME280;34521;33.042;-96.586;2023-06-14T00:24:11;98892.45;;;24.85;38.89
48718;BME280;34521;33.042;-96.586;2023-06-14T00:26:35;98893.50;;;25.02;38.66
48718;BME280;34521;33.042;-96.586;2023-06-14T00:29:00;98895.13;;;24.98;38.21
48718;BME280;34521;33.042;-96.586;2023-06-14T00:31:25;98895.00;;;25.02;38.04
48718;BME280;34521;33.042;-96.586;2023-06-14T00:33:50;98895.12;;;25.04;37.59
48718;BME280;34521;33.042;-96.586;2023-06-14T00:36:16;98892.31;;;25.12;38.10
48718;BME280;34521;33.042;-96.586;2023-06-14T00:38:41;98887.56;;;25.39;37.71
48718;BME280;34521;33.042;-96.586;2023-06-14T00:41:06;98891.52;;;25.10;37.61
48718;BME280;34521;33.042;-96.586;2023-06-14T00:43:31;98893.50;;;25.98;36.75
48718;BME280;34521;33.042;-96.586;2023-06-14T00:45:56;98893.37;;;24.96;37.37
48718;BME280;34521;33.042;-96.586;2023-06-14T00:48:21;98896.31;;;25.47;37.33
48718;BME280;34521;33.042;-96.586;2023-06-14T00:50:46;98899.98;;;24.54;37.89
48718;BME280;34521;33.042;-96.586;2023-06-14T00:53:11;98900.40;;;25.00;37.91
48718;BME280;34521;33.042;-96.586;2023-06-14T00:55:36;98895.62;;;24.74;37.85
48718;BME280;34521;33.042;-96.586;2023-06-14T00:58:01;98886.37;;;25.11;37.38
48718;BME280;34521;33.042;-96.586;2023-06-14T01:00:26;98880.83;;;24.65;38.26
48718;BME280;34521;33.042;-96.586;2023-06-14T01:02:51;98878.06;;;23.95;38.99
48718;BME280;34521;33.042;-96.586;2023-06-14T01:05:17;98876.28;;;23.67;40.01
48718;BME280;34521;33.042;-96.586;2023-06-14T01:07:51;98864.38;;;24.55;39.47
48718;BME280;34521;33.042;-96.586;2023-06-14T01:10:23;98870.26;;;24.57;39.28
48718;BME280;34521;33.042;-96.586;2023-06-14T01:12:36;98875.33;;;23.89;39.97
48718;BME280;34521;33.042;-96.586;2023-06-14T01:14:58;98873.30;;;24.57;39.76
48718;BME280;34521;33.042;-96.586;2023-06-14T01:17:22;98870.88;;;24.69;39.40
48718;BME280;34521;33.042;-96.586;2023-06-14T01:19:46;98869.12;;;24.32;39.15
48718;BME280;34521;33.042;-96.586;2023-06-14T01:22:11;98870.05;;;25.40;37.63
48718;BME280;34521;33.042;-96.586;2023-06-14T01:24:36;98863.37;;;26.00;36.80
48718;BME280;34521;33.042;-96.586;2023-06-14T01:27:03;98862.27;;;25.55;37.35
48718;BME280;34521;33.042;-96.586;2023-06-14T01:29:27;98863.50;;;25.53;37.33
48718;BME280;34521;33.042;-96.586;2023-06-14T01:31:51;98863.02;;;24.95;37.81
48718;BME280;34521;33.042;-96.586;2023-06-14T01:34:16;98861.35;;;24.84;37.59
48718;BME280;34521;33.042;-96.586;2023-06-14T01:36:44;98858.88;;;25.30;37.58
48718;BME280;34521;33.042;-96.586;2023-06-14T01:39:07;98862.38;;;25.47;36.99
48718;BME280;34521;33.042;-96.586;2023-06-14T01:41:32;98862.17;;;25.12;37.46
48718;BME280;34521;33.042;-96.586;2023-06-14T01:43:58;98861.91;;;25.31;37.17
48718;BME280;34521;33.042;-96.586;2023-06-14T01:46:22;98859.96;;;25.13;37.05
48718;BME280;34521;33.042;-96.586;2023-06-14T01:48:46;98857.01;;;25.67;36.36
48718;BME280;34521;33.042;-96.586;2023-06-14T01:51:11;98863.78;;;24.89;37.71
48718;BME280;34521;33.042;-96.586;2023-06-14T01:53:37;98863.40;;;24.51;37.92
48718;BME280;34521;33.042;-96.586;2023-06-14T01:56:02;98862.64;;;24.81;37.85
48718;BME280;34521;33.042;-96.586;2023-06-14T01:58:26;98866.60;;;24.82;37.76
48718;BME280;34521;33.042;-96.586;2023-06-14T02:00:52;98864.97;;;25.03;37.15
48718;BME280;34521;33.042;-96.586;2023-06-14T02:03:16;98857.79;;;25.06;37.70
48718;BME280;34521;33.042;-96.586;2023-06-14T02:05:42;98855.23;;;24.52;39.46
48718;BME280;34521;33.042;-96.586;2023-06-14T02:08:07;98857.17;;;24.53;39.02
48718;BME280;34521;33.042;-96.586;2023-06-14T02:10:31;98863.17;;;23.93;40.26
48718;BME280;34521;33.042;-96.586;2023-06-14T02:12:57;98852.02;;;24.00;40.22
48718;BME280;34521;33.042;-96.586;2023-06-14T02:15:22;98843.80;;;24.10;40.17
48718;BME280;34521;33.042;-96.586;2023-06-14T02:17:47;98831.97;;;24.67;38.68
48718;BME280;34521;33.042;-96.586;2023-06-14T02:20:12;98824.21;;;25.68;37.18
48718;BME280;34521;33.042;-96.586;2023-06-14T02:22:37;98824.95;;;25.78;36.74
48718;BME280;34521;33.042;-96.586;2023-06-14T02:25:02;98831.45;;;25.04;37.75
48718;BME280;34521;33.042;-96.586;2023-06-14T02:27:27;98828.46;;;25.14;37.59
48718;BME280;34521;33.042;-96.586;2023-06-14T02:29:52;98830.44;;;24.89;37.56
48718;BME280;34521;33.042;-96.586;2023-06-14T02:32:17;98822.60;;;24.61;37.96
48718;BME280;34521;33.042;-96.586;2023-06-14T02:34:42;98821.14;;;24.64;37.94
48718;BME280;34521;33.042;-96.586;2023-06-14T02:37:07;98834.76;;;24.60;37.96
48718;BME280;34521;33.042;-96.586;2023-06-14T02:39:31;98837.05;;;25.40;37.14
48718;BME280;34521;33.042;-96.586;2023-06-14T02:41:57;98842.20;;;25.85;36.79
48718;BME280;34521;33.042;-96.586;2023-06-14T02:44:25;98848.13;;;25.21;37.05
48718;BME280;34521;33.042;-96.586;2023-06-14T02:46:47;98849.49;;;23.78;38.78
48718;BME280;34521;33.042;-96.586;2023-06-14T02:49:12;98856.02;;;22.14;40.93
48718;BME280;34521;33.042;-96.586;2023-06-14T02:51:37;98858.61;;;21.93;42.03
48718;BME280;34521;33.042;-96.586;2023-06-14T02:54:02;98856.49;;;24.42;37.51
48718;BME280;34521;33.042;-96.586;2023-06-14T02:56:27;98860.82;;;24.65;36.84
48718;BME280;34521;33.042;-96.586;2023-06-14T02:58:52;98864.77;;;24.43;37.21
48718;BME280;34521;33.042;-96.586;2023-06-14T03:01:17;98870.71;;;24.78;36.77
48718;BME280;34521;33.042;-96.586;2023-06-14T03:03:42;98882.81;;;25.06;36.43
48718;BME280;34521;33.042;-96.586;2023-06-14T03:06:07;98879.15;;;24.68;36.62
48718;BME280;34521;33.042;-96.586;2023-06-14T03:08:32;98883.07;;;23.65;40.27
48718;BME280;34521;33.042;-96.586;2023-06-14T03:10:58;98892.46;;;22.32;43.51
48718;BME280;34521;33.042;-96.586;2023-06-14T03:13:22;98901.64;;;22.74;43.73
48718;BME280;34521;33.042;-96.586;2023-06-14T03:15:47;98907.63;;;23.74;41.56
48718;BME280;34521;33.042;-96.586;2023-06-14T03:18:12;98909.08;;;24.68;39.48
48718;BME280;34521;33.042;-96.586;2023-06-14T03:20:38;98913.92;;;24.88;39.36
48718;BME280;34521;33.042;-96.586;2023-06-14T03:23:03;98920.20;;;25.10;38.57
48718;BME280;34521;33.042;-96.586;2023-06-14T03:25:27;98924.88;;;25.56;37.85
48718;BME280;34521;33.042;-96.586;2023-06-14T03:27:52;98925.16;;;25.49;37.92
48718;BME280;34521;33.042;-96.586;2023-06-14T03:30:17;98920.98;;;24.92;38.25
48718;BME280;34521;33.042;-96.586;2023-06-14T03:32:43;98931.22;;;25.11;38.25
48718;BME280;34521;33.042;-96.586;2023-06-14T03:35:08;98940.63;;;24.69;38.09
48718;BME280;34521;33.042;-96.586;2023-06-14T03:37:33;98951.19;;;24.99;38.27
48718;BME280;34521;33.042;-96.586;2023-06-14T03:39:57;98953.69;;;25.09;38.06
48718;BME280;34521;33.042;-96.586;2023-06-14T03:42:23;98958.21;;;25.23;37.47
48718;BME280;34521;33.042;-96.586;2023-06-14T03:44:48;98948.64;;;24.25;38.44
48718;BME280;34521;33.042;-96.586;2023-06-14T03:47:13;98951.44;;;24.49;38.40
48718;BME280;34521;33.042;-96.586;2023-06-14T03:49:37;98956.24;;;25.35;37.56
48718;BME280;34521;33.042;-96.586;2023-06-14T03:52:04;98969.05;;;24.92;37.81
48718;BME280;34521;33.042;-96.586;2023-06-14T03:54:28;98962.61;;;24.68;37.74
48718;BME280;34521;33.042;-96.586;2023-06-14T03:56:53;98948.93;;;24.87;38.12
48718;BME280;34521;33.042;-96.586;2023-06-14T03:59:18;98951.67;;;24.90;37.70
48718;BME280;34521;33.042;-96.586;2023-06-14T04:01:43;98959.66;;;24.37;38.62
48718;BME280;34521;33.042;-96.586;2023-06-14T04:04:08;98960.83;;;24.13;39.43
48718;BME280;34521;33.042;-96.586;2023-06-14T04:06:33;98955.62;;;24.33;39.25
48718;BME280;34521;33.042;-96.586;2023-06-14T04:08:59;98948.98;;;24.20;39.50
48718;BME280;34521;33.042;-96.586;2023-06-14T04:11:23;98944.45;;;23.77;40.96
48718;BME280;34521;33.042;-96.586;2023-06-14T04:13:48;98940.19;;;24.13;40.10
48718;BME280;34521;33.042;-96.586;2023-06-14T04:16:13;98932.71;;;24.78;38.67
48718;BME280;34521;33.042;-96.586;2023-06-14T04:18:38;98926.77;;;25.11;38.09
48718;BME280;34521;33.042;-96.586;2023-06-14T04:21:03;98920.74;;;24.90;38.04
48718;BME280;34521;33.042;-96.586;2023-06-14T04:23:28;98911.99;;;25.12;38.03
48718;BME280;34521;33.042;-96.586;2023-06-14T04:25:53;98898.51;;;25.17;37.95
48718;BME280;34521;33.042;-96.586;2023-06-14T04:28:18;98897.23;;;25.23;37.46
48718;BME280;34521;33.042;-96.586;2023-06-14T04:30:43;98897.69;;;25.53;37.38
48718;BME280;34521;33.042;-96.586;2023-06-14T04:33:08;98891.89;;;25.14;37.18
48718;BME280;34521;33.042;-96.586;2023-06-14T04:35:33;98896.07;;;25.64;37.18
48718;BME280;34521;33.042;-96.586;2023-06-14T04:37:58;98899.01;;;24.96;37.37
48718;BME280;34521;33.042;-96.586;2023-06-14T04:40:23;98896.12;;;24.90;37.43
48718;BME280;34521;33.042;-96.586;2023-06-14T04:42:48;98894.43;;;24.96;37.37
48718;BME280;34521;33.042;-96.586;2023-06-14T04:45:13;98899.23;;;25.06;37.52
48718;BME280;34521;33.042;-96.586;2023-06-14T04:47:38;98909.39;;;25.06;37.22
48718;BME280;34521;33.042;-96.586;2023-06-14T04:50:04;98915.75;;;25.45;36.65
48718;BME280;34521;33.042;-96.586;2023-06-14T04:52:28;98915.23;;;25.05;37.52
48718;BME280;34521;33.042;-96.586;2023-06-14T04:54:53;98918.00;;;24.47;37.99
48718;BME280;34521;33.042;-96.586;2023-06-14T04:57:19;98913.56;;;24.97;37.25
48718;BME280;34521;33.042;-96.586;2023-06-14T04:59:43;98909.17;;;24.44;37.63
48718;BME280;34521;33.042;-96.586;2023-06-14T05:02:08;98900.52;;;24.25;39.14
48718;BME280;34521;33.042;-96.586;2023-06-14T05:04:34;98900.81;;;23.52;40.70
48718;BME280;34521;33.042;-96.586;2023-06-14T05:06:59;98900.96;;;23.71;40.56
48718;BME280;34521;33.042;-96.586;2023-06-14T05:09:24;98906.82;;;23.66;40.70
48718;BME280;34521;33.042;-96.586;2023-06-14T05:11:49;98909.73;;;23.82;40.84
48718;BME280;34521;33.042;-96.586;2023-06-14T05:14:14;98893.62;;;24.67;39.50
48718;BME280;34521;33.042;-96.586;2023-06-14T05:16:39;98901.81;;;24.45;39.03
48718;BME280;34521;33.042;-96.586;2023-06-14T05:19:04;98905.45;;;24.31;39.18
48718;BME280;34521;33.042;-96.586;2023-06-14T05:21:29;98909.10;;;23.85;39.56
48718;BME280;34521;33.042;-96.586;2023-06-14T05:23:54;98902.23;;;25.35;37.38
48718;BME280;34521;33.042;-96.586;2023-06-14T05:26:19;98905.89;;;25.26;37.74
48718;BME280;34521;33.042;-96.586;2023-06-14T05:28:44;98916.40;;;25.54;36.96
48718;BME280;34521;33.042;-96.586;2023-06-14T05:31:09;98921.95;;;25.51;37.01
48718;BME280;34521;33.042;-96.586;2023-06-14T05:33:34;98918.63;;;25.32;37.58
48718;BME280;34521;33.042;-96.586;2023-06-14T05:35:59;98913.58;;;24.57;37.89
48718;BME280;34521;33.042;-96.586;2023-06-14T05:38:24;98912.09;;;24.92;37.73
48718;BME280;34521;33.042;-96.586;2023-06-14T05:40:49;98914.40;;;24.86;37.52
48718;BME280;34521;33.042;-96.586;2023-06-14T05:43:14;98910.70;;;25.21;37.00
48718;BME280;34521;33.042;-96.586;2023-06-14T05:45:39;98897.31;;;24.67;37.75
48718;BME280;34521;33.042;-96.586;2023-06-14T05:48:04;98889.33;;;25.95;36.58
48718;BME280;34521;33.042;-96.586;2023-06-14T05:50:29;98890.05;;;25.53;36.86
48718;BME280;34521;33.042;-96.586;2023-06-14T05:52:54;98883.09;;;25.41;37.00
48718;BME280;34521;33.042;-96.586;2023-06-14T05:55:19;98880.70;;;25.23;37.59
48718;BME280;34521;33.042;-96.586;2023-06-14T05:57:44;98883.07;;;25.40;37.32
48718;BME280;34521;33.042;-96.586;2023-06-14T06:00:11;98887.02;;;24.19;39.04
48718;BME280;34521;33.042;-96.586;2023-06-14T06:02:34;98883.23;;;24.09;39.77
48718;BME280;34521;33.042;-96.586;2023-06-14T06:04:59;98873.61;;;23.90;39.81
48718;BME280;34521;33.042;-96.586;2023-06-14T06:07:24;98875.25;;;24.04;40.41
48718;BME280;34521;33.042;-96.586;2023-06-14T06:09:50;98871.67;;;23.90;40.73
48718;BME280;34521;33.042;-96.586;2023-06-14T06:12:14;98867.36;;;24.44;39.11
48718;BME280;34521;33.042;-96.586;2023-06-14T06:17:05;98851.56;;;24.33;39.14
48718;BME280;34521;33.042;-96.586;2023-06-14T06:19:30;98846.81;;;24.03;38.90
48718;BME280;34521;33.042;-96.586;2023-06-14T06:21:55;98845.54;;;24.65;38.71
48718;BME280;34521;33.042;-96.586;2023-06-14T06:24:20;98841.15;;;24.93;37.93
48718;BME280;34521;33.042;-96.586;2023-06-14T06:26:45;98842.60;;;25.20;37.54
48718;BME280;34521;33.042;-96.586;2023-06-14T06:29:10;98842.36;;;25.34;37.27
48718;BME280;34521;33.042;-96.586;2023-06-14T06:31:36;98838.27;;;25.22;37.01
48718;BME280;34521;33.042;-96.586;2023-06-14T06:34:00;98835.63;;;24.85;37.51
48718;BME280;34521;33.042;-96.586;2023-06-14T06:36:25;98830.97;;;25.15;37.45
48718;BME280;34521;33.042;-96.586;2023-06-14T06:38:50;98827.03;;;24.89;37.45
48718;BME280;34521;33.042;-96.586;2023-06-14T06:41:15;98820.22;;;25.80;36.81
48718;BME280;34521;33.042;-96.586;2023-06-14T06:43:40;98815.71;;;25.19;36.97
48718;BME280;34521;33.042;-96.586;2023-06-14T06:46:05;98819.10;;;25.19;37.31
48718;BME280;34521;33.042;-96.586;2023-06-14T06:48:30;98814.72;;;24.50;37.92
48718;BME280;34521;33.042;-96.586;2023-06-14T06:50:55;98811.71;;;25.02;37.23
48718;BME280;34521;33.042;-96.586;2023-06-14T06:53:20;98812.29;;;25.64;36.65
48718;BME280;34521;33.042;-96.586;2023-06-14T06:55:45;98816.13;;;24.97;37.53
48718;BME280;34521;33.042;-96.586;2023-06-14T06:58:11;98811.21;;;24.64;37.67
48718;BME280;34521;33.042;-96.586;2023-06-14T07:00:35;98811.93;;;24.46;39.11
48718;BME280;34521;33.042;-96.586;2023-06-14T07:03:00;98809.41;;;23.80;40.29
48718;BME280;34521;33.042;-96.586;2023-06-14T07:05:25;98806.30;;;23.51;40.77
48718;BME280;34521;33.042;-96.586;2023-06-14T07:07:50;98804.05;;;23.79;40.73
48718;BME280;34521;33.042;-96.586;2023-06-14T07:10:15;98802.11;;;24.16;40.38
48718;BME280;34521;33.042;-96.586;2023-06-14T07:12:41;98801.88;;;24.61;38.78
48718;BME280;34521;33.042;-96.586;2023-06-14T07:15:07;98809.02;;;25.36;37.98
48718;BME280;34521;33.042;-96.586;2023-06-14T07:17:31;98814.20;;;25.08;37.99
48718;BME280;34521;33.042;-96.586;2023-06-14T07:19:56;98813.81;;;24.23;38.59
48718;BME280;34521;33.042;-96.586;2023-06-14T07:22:21;98812.83;;;24.57;38.51
48718;BME280;34521;33.042;-96.586;2023-06-14T07:24:45;98816.64;;;25.13;37.65
48718;BME280;34521;33.042;-96.586;2023-06-14T07:27:11;98813.38;;;25.14;37.54
48718;BME280;34521;33.042;-96.586;2023-06-14T07:29:36;98807.45;;;26.00;36.61
48718;BME280;34521;33.042;-96.586;2023-06-14T07:32:01;98803.66;;;25.67;36.34
48718;BME280;34521;33.042;-96.586;2023-06-14T07:34:26;98803.68;;;25.23;36.91
48718;BME280;34521;33.042;-96.586;2023-06-14T07:36:51;98805.68;;;25.23;36.94
48718;BME280;34521;33.042;-96.586;2023-06-14T07:39:16;98807.76;;;25.19;37.33
48718;BME280;34521;33.042;-96.586;2023-06-14T07:41:41;98807.49;;;24.90;37.69
48718;BME280;34521;33.042;-96.586;2023-06-14T07:44:06;98811.92;;;24.85;37.45
48718;BME280;34521;33.042;-96.586;2023-06-14T07:46:31;98818.93;;;24.59;37.76
48718;BME280;34521;33.042;-96.586;2023-06-14T07:48:56;98818.48;;;25.61;37.04
48718;BME280;34521;33.042;-96.586;2023-06-14T07:51:21;98819.60;;;25.12;37.00
48718;BME280;34521;33.042;-96.586;2023-06-14T07:53:46;98821.03;;;25.46;37.18
48718;BME280;34521;33.042;-96.586;2023-06-14T07:56:11;98822.38;;;25.19;37.21
48718;BME280;34521;33.042;-96.586;2023-06-14T07:58:36;98824.24;;;23.89;39.40
48718;BME280;34521;33.042;-96.586;2023-06-14T08:01:01;98826.62;;;24.14;39.30
48718;BME280;34521;33.042;-96.586;2023-06-14T08:03:25;98828.42;;;24.25;39.97
48718;BME280;34521;33.042;-96.586;2023-06-14T08:05:51;98829.57;;;23.85;40.56
48718;BME280;34521;33.042;-96.586;2023-06-14T08:08:16;98828.51;;;23.25;41.27
48718;BME280;34521;33.042;-96.586;2023-06-14T08:10:41;98821.94;;;24.02;39.99
48718;BME280;34521;33.042;-96.586;2023-06-14T08:13:06;98821.14;;;25.29;37.75
48718;BME280;34521;33.042;-96.586;2023-06-14T08:15:31;98815.44;;;25.18;37.44
48718;BME280;34521;33.042;-96.586;2023-06-14T08:17:56;98813.04;;;24.61;38.62
48718;BME280;34521;33.042;-96.586;2023-06-14T08:20:21;98811.26;;;24.61;38.62
48718;BME280;34521;33.042;-96.586;2023-06-14T08:22:46;98805.90;;;24.44;38.87
48718;BME280;34521;33.042;-96.586;2023-06-14T08:25:11;98804.77;;;24.73;38.42
48718;BME280;34521;33.042;-96.586;2023-06-14T08:27:36;98804.19;;;24.78;38.03
48718;BME280;34521;33.042;-96.586;2023-06-14T08:30:01;98802.72;;;24.57;37.96
48718;BME280;34521;33.042;-96.586;2023-06-14T08:32:26;98801.45;;;25.13;37.45
48718;BME280;34521;33.042;-96.586;2023-06-14T08:34:51;98794.31;;;25.81;36.43
48718;BME280;34521;33.042;-96.586;2023-06-14T08:37:16;98800.72;;;24.93;37.31
48718;BME280;34521;33.042;-96.586;2023-06-14T08:39:41;98803.99;;;25.18;36.91
48718;BME280;34521;33.042;-96.586;2023-06-14T08:42:08;98805.28;;;25.04;37.12
48718;BME280;34521;33.042;-96.586;2023-06-14T08:44:31;98802.11;;;24.71;37.57
48718;BME280;34521;33.042;-96.586;2023-06-14T08:46:56;98798.93;;;24.74;37.51
48718;BME280;34521;33.042;-96.586;2023-06-14T08:49:22;98797.61;;;25.48;36.48
48718;BME280;34521;33.042;-96.586;2023-06-14T08:51:47;98801.90;;;25.70;36.77
48718;BME280;34521;33.042;-96.586;2023-06-14T08:54:12;98799.20;;;25.36;36.93
48718;BME280;34521;33.042;-96.586;2023-06-14T08:56:38;98796.35;;;25.18;36.83
48718;BME280;34521;33.042;-96.586;2023-06-14T08:59:02;98796.27;;;23.87;39.49
48718;BME280;34521;33.042;-96.586;2023-06-14T09:01:26;98798.18;;;23.80;40.16
48718;BME280;34521;33.042;-96.586;2023-06-14T09:03:51;98803.66;;;23.80;40.61
48718;BME280;34521;33.042;-96.586;2023-06-14T09:06:17;98810.35;;;23.32;41.41
48718;BME280;34521;33.042;-96.586;2023-06-14T09:08:42;98810.50;;;23.34;41.45
48718;BME280;34521;33.042;-96.586;2023-06-14T09:11:06;98803.05;;;24.35;39.04
48718;BME280;34521;33.042;-96.586;2023-06-14T09:13:32;98805.58;;;24.55;38.77
48718;BME280;34521;33.042;-96.586;2023-06-14T09:15:56;98811.48;;;24.88;37.95
48718;BME280;34521;33.042;-96.586;2023-06-14T09:18:22;98811.76;;;24.46;38.12
48718;BME280;34521;33.042;-96.586;2023-06-14T09:20:46;98806.72;;;25.30;37.30
48718;BME280;34521;33.042;-96.586;2023-06-14T09:23:11;98805.84;;;25.10;37.18
48718;BME280;34521;33.042;-96.586;2023-06-14T09:25:43;98805.38;;;24.76;37.62
48718;BME280;34521;33.042;-96.586;2023-06-14T09:28:02;98801.94;;;24.59;38.17
48718;BME280;34521;33.042;-96.586;2023-06-14T09:30:27;98800.50;;;24.88;37.80
48718;BME280;34521;33.042;-96.586;2023-06-14T09:32:52;98799.87;;;25.41;36.63
48718;BME280;34521;33.042;-96.586;2023-06-14T09:35:18;98790.34;;;25.59;37.03
48718;BME280;34521;33.042;-96.586;2023-06-14T09:37:42;98786.80;;;25.69;36.55
48718;BME280;34521;33.042;-96.586;2023-06-14T09:40:07;98785.83;;;24.23;38.20
48718;BME280;34521;33.042;-96.586;2023-06-14T09:42:32;98787.61;;;24.54;38.15
48718;BME280;34521;33.042;-96.586;2023-06-14T09:44:57;98784.57;;;25.30;37.09
48718;BME280;34521;33.042;-96.586;2023-06-14T09:47:22;98786.28;;;25.48;36.49
48718;BME280;34521;33.042;-96.586;2023-06-14T09:49:47;98786.74;;;25.40;36.90
48718;BME280;34521;33.042;-96.586;2023-06-14T09:52:15;98790.21;;;24.37;37.97
48718;BME280;34521;33.042;-96.586;2023-06-14T09:54:42;98788.60;;;24.86;37.31
48718;BME280;34521;33.042;-96.586;2023-06-14T09:57:03;98791.31;;;24.22;38.97
48718;BME280;34521;33.042;-96.586;2023-06-14T09:59:30;98794.24;;;23.88;39.96
48718;BME280;34521;33.042;-96.586;2023-06-14T10:01:52;98804.40;;;23.35;40.90
48718;BME280;34521;33.042;-96.586;2023-06-14T10:04:20;98806.21;;;23.47;41.09
48718;BME280;34521;33.042;-96.586;2023-06-14T10:06:45;98806.32;;;23.25;41.49
48718;BME280;34521;33.042;-96.586;2023-06-14T10:09:09;98806.27;;;24.58;39.47
48718;BME280;34521;33.042;-96.586;2023-06-14T10:11:32;98814.88;;;25.11;37.98
48718;BME280;34521;33.042;-96.586;2023-06-14T10:13:58;98817.92;;;25.70;36.96
48718;BME280;34521;33.042;-96.586;2023-06-14T10:16:27;98823.08;;;24.86;37.89
48718;BME280;34521;33.042;-96.586;2023-06-14T10:18:51;98823.29;;;25.05;37.61
48718;BME280;34521;33.042;-96.586;2023-06-14T10:21:25;98822.82;;;24.63;37.84
48718;BME280;34521;33.042;-96.586;2023-06-14T10:23:40;98820.98;;;25.22;37.00
48718;BME280;34521;33.042;-96.586;2023-06-14T10:26:02;98820.83;;;25.35;36.75
48718;BME280;34521;33.042;-96.586;2023-06-14T10:28:27;98820.99;;;25.71;36.92
48718;BME280;34521;33.042;-96.586;2023-06-14T10:31:04;98826.10;;;25.57;37.15
48718;BME280;34521;33.042;-96.586;2023-06-14T10:33:17;98828.89;;;24.95;37.27
48718;BME280;34521;33.042;-96.586;2023-06-14T10:35:43;98825.89;;;24.95;37.24
48718;BME280;34521;33.042;-96.586;2023-06-14T10:38:08;98822.04;;;24.53;37.77
48718;BME280;34521;33.042;-96.586;2023-06-14T10:40:33;98822.57;;;25.37;37.00
48718;BME280;34521;33.042;-96.586;2023-06-14T10:42:57;98824.77;;;24.92;37.20
48718;BME280;34521;33.042;-96.586;2023-06-14T10:45:22;98826.23;;;25.02;37.48
48718;BME280;34521;33.042;-96.586;2023-06-14T10:47:49;98828.08;;;24.96;37.17
48718;BME280;34521;33.042;-96.586;2023-06-14T10:50:13;98827.40;;;24.16;38.64
48718;BME280;34521;33.042;-96.586;2023-06-14T10:52:40;98828.34;;;24.20;38.96
48718;BME280;34521;33.042;-96.586;2023-06-14T10:55:06;98833.28;;;23.64;39.50
48718;BME280;34521;33.042;-96.586;2023-06-14T10:57:28;98833.56;;;23.96;39.85
48718;BME280;34521;33.042;-96.586;2023-06-14T10:59:53;98841.74;;;23.55;40.22
48718;BME280;34521;33.042;-96.586;2023-06-14T11:04:48;98843.91;;;23.91;40.62
48718;BME280;34521;33.042;-96.586;2023-06-14T11:07:18;98838.89;;;24.33;40.00
48718;BME280;34521;33.042;-96.586;2023-06-14T11:09:50;98837.41;;;25.08;38.02
48718;BME280;34521;33.042;-96.586;2023-06-14T11:11:58;98835.33;;;24.99;38.07
48718;BME280;34521;33.042;-96.586;2023-06-14T11:14:23;98828.08;;;24.61;38.25
48718;BME280;34521;33.042;-96.586;2023-06-14T11:16:49;98824.31;;;24.97;37.47
48718;BME280;34521;33.042;-96.586;2023-06-14T11:19:13;98822.89;;;25.01;37.27
48718;BME280;34521;33.042;-96.586;2023-06-14T11:21:41;98823.92;;;25.16;37.41
48718;BME280;34521;33.042;-96.586;2023-06-14T11:24:03;98826.33;;;25.88;36.75
48718;BME280;34521;33.042;-96.586;2023-06-14T11:26:29;98825.72;;;25.37;37.04
48718;BME280;34521;33.042;-96.586;2023-06-14T11:28:56;98827.75;;;25.48;36.58
48718;BME280;34521;33.042;-96.586;2023-06-14T11:31:21;98825.93;;;25.60;36.69
48718;BME280;34521;33.042;-96.586;2023-06-14T11:33:48;98825.53;;;25.40;37.30
48718;BME280;34521;33.042;-96.586;2023-06-14T11:36:08;98824.82;;;24.06;38.87
48718;BME280;34521;33.042;-96.586;2023-06-14T11:38:36;98824.24;;;24.00;38.97
48718;BME280;34521;33.042;-96.586;2023-06-14T11:41:01;98821.74;;;24.40;38.73
48718;BME280;34521;33.042;-96.586;2023-06-14T11:43:23;98816.03;;;25.16;37.30
48718;BME280;34521;33.042;-96.586;2023-06-14T11:45:49;98814.03;;;25.09;37.37
48718;BME280;34521;33.042;-96.586;2023-06-14T11:48:13;98815.13;;;25.06;37.74
48718;BME280;34521;33.042;-96.586;2023-06-14T11:50:39;98822.56;;;24.86;37.24
48718;BME280;34521;33.042;-96.586;2023-06-14T11:53:03;98828.51;;;25.00;37.41
48718;BME280;34521;33.042;-96.586;2023-06-14T11:55:28;98830.21;;;24.44;38.67
48718;BME280;34521;33.042;-96.586;2023-06-14T11:57:55;98833.25;;;24.18;39.56
48718;BME280;34521;33.042;-96.586;2023-06-14T12:00:19;98833.49;;;24.29;39.84
48718;BME280;34521;33.042;-96.586;2023-06-14T12:02:53;98840.99;;;23.36;41.34
48718;BME280;34521;33.042;-96.586;2023-06-14T12:05:09;98841.83;;;23.29;41.48
48718;BME280;34521;33.042;-96.586;2023-06-14T12:07:34;98837.77;;;24.68;39.00
48718;BME280;34521;33.042;-96.586;2023-06-14T12:10:06;98839.40;;;25.02;38.36
48718;BME280;34521;33.042;-96.586;2023-06-14T12:12:24;98841.38;;;24.72;38.39
48718;BME280;34521;33.042;-96.586;2023-06-14T12:14:50;98846.06;;;24.73;38.43
48718;BME280;34521;33.042;-96.586;2023-06-14T12:17:13;98846.18;;;25.43;37.43
48718;BME280;34521;33.042;-96.586;2023-06-14T12:19:44;98850.78;;;25.06;37.56
48718;BME280;34521;33.042;-96.586;2023-06-14T12:22:05;98848.51;;;25.25;37.27
48718;BME280;34521;33.042;-96.586;2023-06-14T12:24:29;98847.54;;;24.44;38.75
48718;BME280;34521;33.042;-96.586;2023-06-14T12:26:54;98845.91;;;24.71;38.39
48718;BME280;34521;33.042;-96.586;2023-06-14T12:29:20;98845.39;;;24.26;39.02
48718;BME280;34521;33.042;-96.586;2023-06-14T12:31:44;98845.09;;;25.12;37.80